Flight Track Log - Related Links

Times and Time Zones

All times are in EDT time to prevent confusion due to time zone crossing. See the N517MD flight status page for this flight to view local times or setup timezone preferences in your user account.

Time Position Orientation Groundspeed Altitude Reporting Facility
EDT Latitude Longitude Course Direction KTS MPH feet Rate Location/Type
Tue 09:06:48 PM 28.5500 -81.3167 28° Northeast 155 178 900  Level Orlando TRACON
Tue 09:08:18 PM 28.6333 -81.2667 28° Northeast 261 300 1,500 968 Climbing Orlando TRACON
Tue 09:09:54 PM 28.6147 -81.3908 260° West 284 327 3,900 1,692 Climbing Jacksonville Center
Tue 09:10:54 PM 28.5825 -81.4694 245° Southwest 279 321 5,900 2,000 Climbing Jacksonville Center
Tue 09:11:54 PM 28.5478 -81.5572 246° West 284 327 7,900 2,150 Climbing Jacksonville Center
Tue 09:12:54 PM 28.5236 -81.6450 253° West 294 338 10,200 2,150 Climbing Jacksonville Center
Tue 09:13:54 PM 28.4933 -81.7353 249° West 300 345 12,200 1,900 Climbing Jacksonville Center
Tue 09:14:54 PM 28.4647 -81.8275 251° West 305 351 14,000 1,650 Climbing Jacksonville Center
Tue 09:15:54 PM 28.4364 -81.9200 251° West 310 357 15,500 1,500 Climbing Jacksonville Center
Tue 09:16:54 PM 28.4036 -82.0147 249° West 316 364 17,000 1,550 Climbing Jacksonville Center
Tue 09:17:54 PM 28.3689 -82.1283 251° West 338 389 18,600 1,550 Climbing Jacksonville Center
Tue 09:18:54 PM 28.3361 -82.2275 249° West 344 396 20,100 1,450 Climbing Jacksonville Center
Tue 09:19:54 PM 28.3053 -82.3314 251° West 349 402 21,500 1,450 Climbing Jacksonville Center
Tue 09:20:54 PM 28.2742 -82.4331 251° West 349 402 23,000 1,350 Climbing Jacksonville Center
Tue 09:21:54 PM 28.2414 -82.5369 250° West 349 402 24,200 1,100 Climbing Jacksonville Center
Tue 09:22:54 PM 28.2061 -82.6406 249° West 349 402 25,200 940 Climbing Jacksonville Center
Tue 09:24:40 PM 28.1478 -82.8178 250° West 347 399 26,800 940 Climbing Miami Center
Tue 09:25:40 PM 28.1119 -82.9289 250° West 360 414 27,800 1,000 Climbing Miami Center
Tue 09:26:40 PM 28.0758 -83.0375 249° West 366 421 28,800 950 Climbing Miami Center
Tue 09:27:40 PM 28.0397 -83.1483 250° West 371 427 29,700 1,250 Climbing Miami Center
Tue 09:28:40 PM 28.0036 -83.2589 250° West 376 433 31,300 1,600 Climbing Miami Center
Tue 09:29:40 PM 27.9697 -83.3628 250° West 376 433 32,900 1,300 Climbing Miami Center
Tue 09:30:40 PM 27.9358 -83.4664 250° West 366 421 33,900 1,000 Climbing Miami Center
Tue 09:31:40 PM 27.8997 -83.5700 248° West 361 415 34,900 1,000 Climbing Miami Center
Tue 09:32:40 PM 27.8678 -83.6736 251° West 361 415 35,900 850 Climbing Miami Center
Tue 09:33:40 PM 27.8314 -83.7794 249° West 361 415 36,600 650 Climbing Miami Center
Tue 09:34:40 PM 27.7972 -83.8853 250° West 361 415 37,200 557 Climbing Miami Center
Tue 09:36:54 PM 27.7142 -84.1372 250° West 366 421 38,400 464 Climbing Jacksonville Center
Tue 09:37:54 PM 27.6733 -84.2467 247° West 371 427 38,700 250 Climbing Jacksonville Center
Tue 09:38:54 PM 27.6367 -84.3586 250° West 376 433 38,900 248 Climbing Jacksonville Center
Tue 09:39:55 PM 27.6061 -84.4708 253° West 381 438 39,200 198 Climbing Jacksonville Center
Tue 09:40:55 PM 27.5589 -84.5847 245° Southwest 388 447 39,300 151 Climbing Jacksonville Center
Tue 09:41:54 PM 27.5239 -84.7011 251° West 394 453 39,500 202 Climbing Jacksonville Center
Tue 09:42:54 PM 27.4931 -84.8197 254° West 394 453 39,700 198 Climbing Jacksonville Center
Tue 09:43:55 PM 27.4869 -84.9414 267° West 394 453 39,900 144 Climbing Jacksonville Center
Tue 09:44:59 PM 27.4744 -85.0631 263° West 397 457 40,000 48 Climbing Houston Center
Tue 09:46:00 PM 27.4650 -85.1894 265° West 402 463 40,000  Level Houston Center
Tue 09:47:01 PM 27.4556 -85.3156 265° West 404 465 40,000  Level Houston Center
Tue 09:48:02 PM 27.4453 -85.4425 265° West 407 468 40,000  Level Houston Center
Tue 09:49:03 PM 27.4358 -85.5686 265° West 405 466 40,000  Level Houston Center
Tue 09:50:04 PM 27.4253 -85.6994 265° West 416 479 40,000  Level Houston Center
Tue 09:51:05 PM 27.4161 -85.8283 265° West 414 476 40,000  Level Houston Center
Tue 09:52:06 PM 27.4033 -85.9839 265° West 416 479 40,000  Level Houston Center
Tue 09:53:07 PM 27.3925 -86.1131 265° West 416 479 40,000  Level Houston Center
Tue 09:54:07 PM 27.3822 -86.2425 265° West 415 478 40,000  Level Houston Center
Tue 09:55:08 PM 27.3714 -86.3725 265° West 417 480 40,000  Level Houston Center
Tue 09:56:09 PM 27.3611 -86.4997 265° West 411 473 40,000 -49 Level Houston Center
Tue 09:57:10 PM 27.3489 -86.6256 264° West 405 466 39,900  Descending Houston Center
Tue 09:58:11 PM 27.3383 -86.7514 265° West 404 465 40,000 49 Climbing Houston Center
Tue 09:59:12 PM 27.3267 -86.8772 264° West 405 466 40,000  Level Houston Center
Tue 10:00:12 PM 27.3153 -87.0000 264° West 398 458 40,000  Level Houston Center
Tue 10:01:13 PM 27.3036 -87.1253 264° West 402 463 40,000  Level Houston Center
Tue 10:02:14 PM 27.2928 -87.2517 265° West 405 466 40,000  Level Houston Center
Tue 10:03:15 PM 27.2822 -87.3756 265° West 402 463 40,000  Level Houston Center
Tue 10:04:16 PM 27.2700 -87.5000 264° West 402 463 40,000  Level Houston Center
Tue 10:05:17 PM 27.2578 -87.6231 264° West 399 459 40,000  Level Houston Center
Tue 10:06:17 PM 27.2467 -87.7492 264° West 400 460 40,000  Level Houston Center
Tue 10:07:18 PM 27.2317 -87.8961 263° West 399 459 40,000  Level Houston Center
Tue 10:08:19 PM 27.2211 -88.0211 265° West 401 461 40,000  Level Houston Center
Tue 10:09:20 PM 27.2086 -88.1444 264° West 399 459 40,000  Level Houston Center
Tue 10:10:21 PM 27.1967 -88.2681 264° West 397 457 40,000  Level Houston Center
Tue 10:11:21 PM 27.1842 -88.3936 264° West 402 463 40,000  Level Houston Center
Tue 10:12:22 PM 27.1719 -88.5178 264° West 402 463 40,000  Level Houston Center
Tue 10:13:23 PM 27.1600 -88.6425 264° West 402 463 40,000  Level Houston Center
Tue 10:14:24 PM 27.1467 -88.7675 263° West 403 464 40,000  Level Houston Center
Tue 10:15:25 PM 27.1333 -88.8922 263° West 403 464 40,000  Level Houston Center
Tue 10:16:26 PM 27.1214 -89.0181 264° West 405 466 40,000  Level Houston Center
Tue 10:17:26 PM 27.1078 -89.1458 263° West 408 470 40,000  Level Houston Center
Tue 10:18:27 PM 27.0939 -89.2767 263° West 412 474 40,000  Level Houston Center
Tue 10:19:28 PM 27.0803 -89.4033 263° West 413 475 40,000  Level Houston Center
Tue 10:20:29 PM 27.0675 -89.5278 263° West 411 473 40,000  Level Houston Center
Tue 10:21:30 PM 27.0542 -89.6556 263° West 410 472 40,000  Level Houston Center
Tue 10:22:30 PM 27.0397 -89.7856 263° West 413 475 40,000  Level Houston Center
Tue 10:23:31 PM 27.0264 -89.9097 263° West 412 474 40,000  Level Houston Center
Tue 10:24:32 PM 27.0089 -90.0600 263° West 409 471 40,000  Level Houston Center
Tue 10:25:33 PM 26.9956 -90.1864 263° West 408 470 40,000  Level Houston Center
Tue 10:26:34 PM 26.9808 -90.3133 263° West 409 471 40,000  Level Houston Center
Tue 10:27:34 PM 26.9672 -90.4394 263° West 409 471 40,000  Level Houston Center
Tue 10:28:35 PM 26.9531 -90.5683 263° West 411 473 40,000  Level Houston Center
Tue 10:29:36 PM 26.9386 -90.6939 263° West 411 473 40,000  Level Houston Center
Tue 10:30:37 PM 26.9242 -90.8192 263° West 409 471 40,000  Level Houston Center
Tue 10:31:38 PM 26.9097 -90.9531 263° West 412 474 40,000  Level Houston Center
Tue 10:32:38 PM 26.8950 -91.0778 262° West 414 476 40,000  Level Houston Center
Tue 10:33:39 PM 26.8778 -91.1975 261° West 408 470 40,000  Level Houston Center
Tue 10:34:40 PM 26.8619 -91.3250 262° West 410 472 40,000  Level Houston Center
Tue 10:35:41 PM 26.8472 -91.4522 263° West 412 474 40,000  Level Houston Center
Tue 10:36:42 PM 26.8322 -91.5800 263° West 413 475 40,000  Level Houston Center
Tue 10:37:43 PM 26.8147 -91.7172 262° West 415 478 40,000  Level Houston Center
Tue 10:38:44 PM 26.8008 -91.8342 262° West 414 476 40,000  Level Houston Center
Tue 10:39:44 PM 26.7836 -91.9694 262° West 409 471 40,000  Level Houston Center
Tue 10:40:45 PM 26.7675 -92.0975 262° West 413 475 40,000  Level Houston Center
Tue 10:41:46 PM 26.7500 -92.2375 262° West 417 480 40,000  Level Houston Center
Tue 10:42:47 PM 26.7344 -92.3553 262° West 418 481 40,000  Level Houston Center
Tue 10:43:48 PM 26.7178 -92.4872 262° West 421 484 40,000  Level Houston Center
Tue 10:44:49 PM 26.7033 -92.6175 263° West 423 487 40,000  Level Houston Center
Tue 10:45:50 PM 26.6883 -92.7714 264° West 421 484 40,000  Level Houston Center
Tue 10:46:50 PM 26.6753 -92.8983 263° West 419 482 40,000  Level Houston Center
Tue 10:47:51 PM 26.6611 -93.0253 263° West 417 480 40,000  Level Houston Center
Tue 10:48:52 PM 26.6483 -93.1519 264° West 415 478 40,000  Level Houston Center
Tue 10:49:53 PM 26.6336 -93.2864 263° West 419 482 40,000  Level Houston Center
Tue 10:50:54 PM 26.6206 -93.4133 263° West 419 482 40,000 -49 Level Houston Center
Tue 10:51:55 PM 26.6067 -93.5422 263° West 417 480 39,900  Descending Houston Center
Tue 10:52:56 PM 26.5922 -93.6639 262° West 413 475 40,000 49 Climbing Houston Center
Tue 10:53:57 PM 26.5778 -93.7942 263° West 417 480 40,000  Level Houston Center
Tue 10:54:58 PM 26.5622 -93.9256 262° West 422 486 40,000  Level Houston Center
Tue 10:55:59 PM 26.5478 -94.0561 263° West 423 487 40,000  Level Houston Center
Tue 10:56:59 PM 26.5314 -94.1983 263° West 420 483 40,000  Level Houston Center
Tue 10:58:00 PM 26.5158 -94.3281 262° West 422 486 40,000  Level Houston Center
Tue 10:59:01 PM 26.5011 -94.4592 263° West 425 489 40,000  Level Houston Center
Tue 11:00:02 PM 26.4858 -94.5906 263° West 425 489 40,000  Level Houston Center
Tue 11:01:02 PM 26.4706 -94.7200 263° West 423 487 40,000  Level Houston Center
Tue 11:02:03 PM 26.4539 -94.8519 262° West 428 493 40,000 -49 Level Houston Center
Tue 11:03:04 PM 26.4389 -94.9847 263° West 429 494 39,900  Descending Houston Center
Tue 11:04:05 PM 26.4217 -95.1244 262° West 425 489 40,000 50 Climbing Houston Center
Tue 11:05:05 PM 26.4069 -95.2558 263° West 426 490 40,000  Level Houston Center
Tue 11:06:06 PM 26.3900 -95.3867 262° West 427 491 40,000  Level Houston Center
Tue 11:07:07 PM 26.3739 -95.5167 262° West 425 489 40,000  Level Houston Center
Tue 11:08:08 PM 26.3583 -95.6478 262° West 426 490 40,000  Level Houston Center
Tue 11:09:08 PM 26.3419 -95.7783 262° West 427 491 40,000  Level Houston Center
Tue 11:10:09 PM 26.3242 -95.9097 261° West 427 491 40,000  Level Houston Center
Tue 11:11:10 PM 26.3081 -96.0406 262° West 427 491 40,000  Level Houston Center
Tue 11:12:11 PM 26.2917 -96.1697 262° West 424 488 40,000  Level Houston Center
Tue 11:13:11 PM 26.2750 -96.2997 262° West 425 489 40,000  Level Houston Center
Tue 11:14:12 PM 26.2572 -96.4317 261° West 427 491 40,000  Level Houston Center
Tue 11:15:13 PM 26.2400 -96.5628 262° West 428 493 40,000  Level Houston Center
Tue 11:16:13 PM 26.2236 -96.6933 262° West 427 491 40,000  Level Houston Center
Tue 11:17:14 PM 26.2031 -96.8408 261° West 426 490 40,000  Level Houston Center
Tue 11:18:15 PM 26.1839 -96.9825 261° West 429 494 40,000  Level Houston Center
Tue 11:19:15 PM 26.1664 -97.1136 262° West 430 495 40,000  Level Houston Center
Tue 11:20:16 PM 26.1483 -97.2450 261° West 430 495 40,000  Level Houston Center
Tue 11:21:16 PM 26.1306 -97.3764 261° West 430 495 40,000  Level Houston Center
Tue 11:22:17 PM 26.1114 -97.5075 261° West 429 494 40,000  Level Houston Center
Tue 11:23:18 PM 26.0947 -97.6400 262° West 439 505 40,000  Level Houston Center
Tue 11:24:18 PM 26.0744 -97.7769 261° West 452 520 40,000  Level Houston Center
Tue 11:25:19 PM 26.0544 -97.9164 261° West 445 512 40,000  Level Houston Center
Tue 11:26:19 PM 26.0361 -98.0486 261° West 435 501 40,000  Level Houston Center
Tue 11:28:00 PM 25.9971 -98.2397 262° West  Level FlightAware Approximate
Tue 11:35:00 PM 25.9022 -99.0462 261° West  Level FlightAware Approximate
Tue 11:36:00 PM 25.8854 -99.1609 261° West  Level FlightAware Approximate
Tue 11:37:00 PM 25.8685 -99.2756 261° West  Level FlightAware Approximate
Tue 11:38:00 PM 25.8515 -99.3902 261° West  Level FlightAware Approximate
Tue 11:39:00 PM 25.8488 -99.5061 257° West  Level FlightAware Approximate
Tue 11:40:00 PM 25.8281 -99.6199 261° West  Level FlightAware Approximate
Tue 11:41:00 PM 25.8118 -99.7347 261° West  Level FlightAware Approximate
Tue 11:42:00 PM 25.7970 -99.8496 264° West  Level FlightAware Approximate
Tue 11:43:00 PM 25.7865 -99.9652 264° West  Level FlightAware Approximate
Tue 11:44:00 PM 25.7667 -100.0778 270° West  Level FlightAware Approximate
Tue 11:45:00 PM 25.8198 -100.1729 299° West  Level FlightAware Approximate

Login

Don't have an account? Register now (free) for customized features, flight alerts, and more!